sensor_id;sensor_type;location;lat;lon;timestamp;P1;durP1;ratioP1;P2;durP2;ratioP2
21539;SDS011;10931;52.164;5.518;2023-03-03T00:01:09;2.75;;;1.83;;
21539;SDS011;10931;52.164;5.518;2023-03-03T00:03:38;3.13;;;1.73;;
21539;SDS011;10931;52.164;5.518;2023-03-03T00:06:08;2.45;;;1.73;;
21539;SDS011;10931;52.164;5.518;2023-03-03T00:08:35;3.33;;;1.60;;
21539;SDS011;10931;52.164;5.518;2023-03-03T00:11:03;3.30;;;1.73;;
21539;SDS011;10931;52.164;5.518;2023-03-03T00:13:31;2.45;;;1.63;;
21539;SDS011;10931;52.164;5.518;2023-03-03T00:18:55;2.60;;;1.83;;
21539;SDS011;10931;52.164;5.518;2023-03-03T00:21:25;3.67;;;2.00;;
21539;SDS011;10931;52.164;5.518;2023-03-03T00:23:58;2.33;;;1.70;;
21539;SDS011;10931;52.164;5.518;2023-03-03T00:26:47;1.92;;;1.50;;
21539;SDS011;10931;52.164;5.518;2023-03-03T00:29:30;3.10;;;1.65;;
21539;SDS011;10931;52.164;5.518;2023-03-03T00:32:20;1.80;;;1.38;;
21539;SDS011;10931;52.164;5.518;2023-03-03T00:38:00;2.53;;;1.83;;
21539;SDS011;10931;52.164;5.518;2023-03-03T00:40:35;2.35;;;1.58;;
21539;SDS011;10931;52.164;5.518;2023-03-03T00:43:14;2.58;;;1.90;;
21539;SDS011;10931;52.164;5.518;2023-03-03T00:45:48;2.83;;;1.85;;
21539;SDS011;10931;52.164;5.518;2023-03-03T00:48:22;1.85;;;1.42;;
21539;SDS011;10931;52.164;5.518;2023-03-03T00:50:55;2.47;;;1.73;;
21539;SDS011;10931;52.164;5.518;2023-03-03T00:53:24;2.72;;;1.70;;
21539;SDS011;10931;52.164;5.518;2023-03-03T00:55:54;3.45;;;2.08;;
21539;SDS011;10931;52.164;5.518;2023-03-03T00:58:21;2.55;;;1.75;;
21539;SDS011;10931;52.164;5.518;2023-03-03T01:00:48;2.50;;;1.58;;
21539;SDS011;10931;52.164;5.518;2023-03-03T01:03:16;2.63;;;1.60;;
21539;SDS011;10931;52.164;5.518;2023-03-03T01:05:47;3.00;;;1.73;;
21539;SDS011;10931;52.164;5.518;2023-03-03T01:08:13;3.22;;;1.75;;
21539;SDS011;10931;52.164;5.518;2023-03-03T01:10:50;3.00;;;1.60;;
21539;SDS011;10931;52.164;5.518;2023-03-03T01:13:18;2.75;;;1.70;;
21539;SDS011;10931;52.164;5.518;2023-03-03T01:15:48;3.35;;;1.83;;
21539;SDS011;10931;52.164;5.518;2023-03-03T01:18:14;2.40;;;1.67;;
21539;SDS011;10931;52.164;5.518;2023-03-03T01:20:40;2.45;;;1.75;;
21539;SDS011;10931;52.164;5.518;2023-03-03T01:23:06;3.88;;;1.80;;
21539;SDS011;10931;52.164;5.518;2023-03-03T01:25:34;2.45;;;1.80;;
21539;SDS011;10931;52.164;5.518;2023-03-03T01:28:01;2.45;;;1.88;;
21539;SDS011;10931;52.164;5.518;2023-03-03T01:30:27;2.25;;;1.65;;
21539;SDS011;10931;52.164;5.518;2023-03-03T01:32:53;2.78;;;1.63;;
21539;SDS011;10931;52.164;5.518;2023-03-03T01:35:21;2.88;;;2.10;;
21539;SDS011;10931;52.164;5.518;2023-03-03T01:37:47;2.65;;;1.75;;
21539;SDS011;10931;52.164;5.518;2023-03-03T01:40:14;2.50;;;1.80;;
21539;SDS011;10931;52.164;5.518;2023-03-03T01:42:45;4.55;;;1.88;;
21539;SDS011;10931;52.164;5.518;2023-03-03T01:48:08;2.47;;;1.75;;
21539;SDS011;10931;52.164;5.518;2023-03-03T01:50:44;2.90;;;1.60;;
21539;SDS011;10931;52.164;5.518;2023-03-03T01:53:35;2.05;;;1.50;;
21539;SDS011;10931;52.164;5.518;2023-03-03T01:56:04;2.47;;;1.52;;
21539;SDS011;10931;52.164;5.518;2023-03-03T01:58:36;2.50;;;1.70;;
21539;SDS011;10931;52.164;5.518;2023-03-03T02:01:11;2.33;;;1.63;;
21539;SDS011;10931;52.164;5.518;2023-03-03T02:03:40;2.75;;;1.92;;
21539;SDS011;10931;52.164;5.518;2023-03-03T02:06:10;2.63;;;1.63;;
21539;SDS011;10931;52.164;5.518;2023-03-03T02:11:33;2.53;;;1.63;;
21539;SDS011;10931;52.164;5.518;2023-03-03T02:14:05;3.05;;;1.95;;
21539;SDS011;10931;52.164;5.518;2023-03-03T02:16:33;3.03;;;1.77;;
21539;SDS011;10931;52.164;5.518;2023-03-03T02:18:59;2.63;;;1.77;;
21539;SDS011;10931;52.164;5.518;2023-03-03T02:21:25;2.65;;;1.85;;
21539;SDS011;10931;52.164;5.518;2023-03-03T02:23:52;2.42;;;1.65;;
21539;SDS011;10931;52.164;5.518;2023-03-03T02:26:24;3.00;;;2.00;;
21539;SDS011;10931;52.164;5.518;2023-03-03T02:28:52;2.13;;;1.70;;
21539;SDS011;10931;52.164;5.518;2023-03-03T02:31:27;4.20;;;2.05;;
21539;SDS011;10931;52.164;5.518;2023-03-03T02:33:54;2.08;;;1.45;;
21539;SDS011;10931;52.164;5.518;2023-03-03T02:36:24;2.92;;;1.85;;
21539;SDS011;10931;52.164;5.518;2023-03-03T02:46:35;2.40;;;1.60;;
21539;SDS011;10931;52.164;5.518;2023-03-03T02:49:04;2.55;;;1.48;;
21539;SDS011;10931;52.164;5.518;2023-03-03T02:51:34;3.22;;;2.00;;
21539;SDS011;10931;52.164;5.518;2023-03-03T02:54:03;2.55;;;1.65;;
21539;SDS011;10931;52.164;5.518;2023-03-03T02:56:30;3.15;;;1.65;;
21539;SDS011;10931;52.164;5.518;2023-03-03T02:58:55;2.47;;;1.55;;
21539;SDS011;10931;52.164;5.518;2023-03-03T03:01:22;3.13;;;1.75;;
21539;SDS011;10931;52.164;5.518;2023-03-03T03:03:50;2.83;;;1.58;;
21539;SDS011;10931;52.164;5.518;2023-03-03T03:06:15;3.15;;;1.83;;
21539;SDS011;10931;52.164;5.518;2023-03-03T03:08:41;2.63;;;1.70;;
21539;SDS011;10931;52.164;5.518;2023-03-03T03:11:07;3.08;;;1.80;;
21539;SDS011;10931;52.164;5.518;2023-03-03T03:13:33;2.42;;;1.80;;
21539;SDS011;10931;52.164;5.518;2023-03-03T03:15:59;2.55;;;1.63;;
21539;SDS011;10931;52.164;5.518;2023-03-03T03:18:25;2.83;;;1.83;;
21539;SDS011;10931;52.164;5.518;2023-03-03T03:20:51;2.08;;;1.52;;
21539;SDS011;10931;52.164;5.518;2023-03-03T03:23:17;2.35;;;1.55;;
21539;SDS011;10931;52.164;5.518;2023-03-03T03:25:48;3.22;;;1.85;;
21539;SDS011;10931;52.164;5.518;2023-03-03T03:28:14;2.60;;;1.80;;
21539;SDS011;10931;52.164;5.518;2023-03-03T03:30:42;2.17;;;1.60;;
21539;SDS011;10931;52.164;5.518;2023-03-03T03:33:09;3.42;;;2.10;;
21539;SDS011;10931;52.164;5.518;2023-03-03T03:35:36;3.13;;;1.65;;
21539;SDS011;10931;52.164;5.518;2023-03-03T03:38:02;2.15;;;1.65;;
21539;SDS011;10931;52.164;5.518;2023-03-03T03:40:28;2.58;;;1.90;;
21539;SDS011;10931;52.164;5.518;2023-03-03T03:42:54;3.90;;;2.13;;
21539;SDS011;10931;52.164;5.518;2023-03-03T03:45:22;2.45;;;1.50;;
21539;SDS011;10931;52.164;5.518;2023-03-03T03:47:50;2.22;;;1.50;;
21539;SDS011;10931;52.164;5.518;2023-03-03T03:50:19;2.83;;;1.80;;
21539;SDS011;10931;52.164;5.518;2023-03-03T03:52:45;2.92;;;1.70;;
21539;SDS011;10931;52.164;5.518;2023-03-03T03:55:11;2.70;;;1.70;;
21539;SDS011;10931;52.164;5.518;2023-03-03T03:57:38;3.50;;;1.83;;
21539;SDS011;10931;52.164;5.518;2023-03-03T04:00:05;2.83;;;1.90;;
21539;SDS011;10931;52.164;5.518;2023-03-03T04:02:32;3.13;;;1.77;;
21539;SDS011;10931;52.164;5.518;2023-03-03T04:04:58;2.65;;;1.60;;
21539;SDS011;10931;52.164;5.518;2023-03-03T04:07:24;2.53;;;1.85;;
21539;SDS011;10931;52.164;5.518;2023-03-03T04:16:40;2.28;;;1.48;;
21539;SDS011;10931;52.164;5.518;2023-03-03T04:19:05;2.13;;;1.50;;
21539;SDS011;10931;52.164;5.518;2023-03-03T04:21:31;2.90;;;1.83;;
21539;SDS011;10931;52.164;5.518;2023-03-03T04:24:00;3.15;;;1.85;;
21539;SDS011;10931;52.164;5.518;2023-03-03T04:26:25;3.42;;;2.08;;
21539;SDS011;10931;52.164;5.518;2023-03-03T04:28:51;2.83;;;1.83;;
21539;SDS011;10931;52.164;5.518;2023-03-03T04:31:20;3.20;;;1.80;;
21539;SDS011;10931;52.164;5.518;2023-03-03T04:33:45;2.65;;;1.67;;
21539;SDS011;10931;52.164;5.518;2023-03-03T04:36:11;3.58;;;1.63;;
21539;SDS011;10931;52.164;5.518;2023-03-03T04:38:38;2.53;;;1.80;;
21539;SDS011;10931;52.164;5.518;2023-03-03T04:41:07;3.10;;;1.65;;
21539;SDS011;10931;52.164;5.518;2023-03-03T04:43:35;2.85;;;1.67;;
21539;SDS011;10931;52.164;5.518;2023-03-03T04:46:04;2.65;;;1.65;;
21539;SDS011;10931;52.164;5.518;2023-03-03T04:48:33;2.85;;;1.60;;
21539;SDS011;10931;52.164;5.518;2023-03-03T04:50:59;2.20;;;1.60;;
21539;SDS011;10931;52.164;5.518;2023-03-03T04:53:25;2.80;;;1.58;;
21539;SDS011;10931;52.164;5.518;2023-03-03T04:55:51;4.10;;;2.20;;
21539;SDS011;10931;52.164;5.518;2023-03-03T04:58:18;3.30;;;1.83;;
21539;SDS011;10931;52.164;5.518;2023-03-03T05:00:51;3.63;;;1.70;;
21539;SDS011;10931;52.164;5.518;2023-03-03T05:03:19;3.83;;;1.73;;
21539;SDS011;10931;52.164;5.518;2023-03-03T05:05:46;3.55;;;2.05;;
21539;SDS011;10931;52.164;5.518;2023-03-03T05:08:12;3.83;;;1.80;;
21539;SDS011;10931;52.164;5.518;2023-03-03T05:10:38;3.75;;;1.90;;
21539;SDS011;10931;52.164;5.518;2023-03-03T05:13:06;3.53;;;1.80;;
21539;SDS011;10931;52.164;5.518;2023-03-03T05:15:33;2.92;;;1.90;;
21539;SDS011;10931;52.164;5.518;2023-03-03T05:17:58;2.42;;;1.60;;
21539;SDS011;10931;52.164;5.518;2023-03-03T05:20:27;3.00;;;1.73;;
21539;SDS011;10931;52.164;5.518;2023-03-03T05:22:53;3.53;;;1.77;;
21539;SDS011;10931;52.164;5.518;2023-03-03T05:25:19;2.83;;;1.60;;
21539;SDS011;10931;52.164;5.518;2023-03-03T05:27:47;2.53;;;1.83;;
21539;SDS011;10931;52.164;5.518;2023-03-03T05:30:19;2.92;;;1.63;;
21539;SDS011;10931;52.164;5.518;2023-03-03T05:32:45;2.50;;;1.80;;
21539;SDS011;10931;52.164;5.518;2023-03-03T05:35:10;4.22;;;1.90;;
21539;SDS011;10931;52.164;5.518;2023-03-03T05:37:36;3.75;;;1.95;;
21539;SDS011;10931;52.164;5.518;2023-03-03T05:40:11;3.00;;;1.80;;
21539;SDS011;10931;52.164;5.518;2023-03-03T05:42:38;2.17;;;1.58;;
21539;SDS011;10931;52.164;5.518;2023-03-03T05:45:04;2.67;;;1.60;;
21539;SDS011;10931;52.164;5.518;2023-03-03T05:47:30;2.58;;;1.50;;
21539;SDS011;10931;52.164;5.518;2023-03-03T05:52:31;2.88;;;1.50;;
21539;SDS011;10931;52.164;5.518;2023-03-03T05:54:57;2.67;;;1.30;;
21539;SDS011;10931;52.164;5.518;2023-03-03T05:57:23;3.05;;;1.80;;
21539;SDS011;10931;52.164;5.518;2023-03-03T05:59:48;2.88;;;1.58;;
21539;SDS011;10931;52.164;5.518;2023-03-03T06:02:27;3.33;;;1.45;;
21539;SDS011;10931;52.164;5.518;2023-03-03T06:04:58;2.38;;;1.33;;
21539;SDS011;10931;52.164;5.518;2023-03-03T06:07:24;2.45;;;1.35;;
21539;SDS011;10931;52.164;5.518;2023-03-03T06:09:52;2.10;;;1.20;;
21539;SDS011;10931;52.164;5.518;2023-03-03T06:12:18;2.45;;;1.50;;
21539;SDS011;10931;52.164;5.518;2023-03-03T06:14:44;1.63;;;1.20;;
21539;SDS011;10931;52.164;5.518;2023-03-03T06:17:12;2.50;;;1.50;;
21539;SDS011;10931;52.164;5.518;2023-03-03T06:19:38;2.97;;;1.50;;
21539;SDS011;10931;52.164;5.518;2023-03-03T06:22:05;2.17;;;1.33;;
21539;SDS011;10931;52.164;5.518;2023-03-03T06:24:32;2.20;;;1.20;;
21539;SDS011;10931;52.164;5.518;2023-03-03T06:26:58;1.73;;;1.10;;
21539;SDS011;10931;52.164;5.518;2023-03-03T06:29:24;1.60;;;1.20;;
21539;SDS011;10931;52.164;5.518;2023-03-03T06:31:50;1.90;;;1.20;;
21539;SDS011;10931;52.164;5.518;2023-03-03T06:34:24;2.92;;;1.83;;
21539;SDS011;10931;52.164;5.518;2023-03-03T06:36:53;2.20;;;1.20;;
21539;SDS011;10931;52.164;5.518;2023-03-03T06:39:21;1.23;;;1.00;;
21539;SDS011;10931;52.164;5.518;2023-03-03T06:41:47;2.55;;;1.38;;
21539;SDS011;10931;52.164;5.518;2023-03-03T06:44:13;2.25;;;1.30;;
21539;SDS011;10931;52.164;5.518;2023-03-03T06:46:46;2.05;;;1.17;;
21539;SDS011;10931;52.164;5.518;2023-03-03T06:49:24;2.20;;;1.40;;
21539;SDS011;10931;52.164;5.518;2023-03-03T06:51:49;2.00;;;1.10;;
21539;SDS011;10931;52.164;5.518;2023-03-03T06:54:26;2.42;;;1.00;;
21539;SDS011;10931;52.164;5.518;2023-03-03T06:56:59;3.33;;;1.33;;
21539;SDS011;10931;52.164;5.518;2023-03-03T06:59:45;1.85;;;1.10;;
21539;SDS011;10931;52.164;5.518;2023-03-03T07:02:15;1.50;;;1.10;;
21539;SDS011;10931;52.164;5.518;2023-03-03T07:04:59;2.70;;;1.50;;
21539;SDS011;10931;52.164;5.518;2023-03-03T07:07:36;2.90;;;1.38;;
21539;SDS011;10931;52.164;5.518;2023-03-03T07:10:23;2.33;;;1.30;;
21539;SDS011;10931;52.164;5.518;2023-03-03T07:12:53;2.03;;;1.13;;
21539;SDS011;10931;52.164;5.518;2023-03-03T07:16:02;1.67;;;0.90;;
21539;SDS011;10931;52.164;5.518;2023-03-03T08:19:12;2.03;;;1.08;;
21539;SDS011;10931;52.164;5.518;2023-03-03T08:25:32;1.25;;;0.93;;
21539;SDS011;10931;52.164;5.518;2023-03-03T08:37:58;1.42;;;0.88;;
21539;SDS011;10931;52.164;5.518;2023-03-03T08:43:42;1.58;;;1.20;;
21539;SDS011;10931;52.164;5.518;2023-03-03T08:46:38;2.20;;;1.05;;
21539;SDS011;10931;52.164;5.518;2023-03-03T08:51:49;1.98;;;1.00;;
21539;SDS011;10931;52.164;5.518;2023-03-03T08:59:03;2.50;;;1.10;;
21539;SDS011;10931;52.164;5.518;2023-03-03T09:05:45;2.08;;;1.00;;
21539;SDS011;10931;52.164;5.518;2023-03-03T09:08:45;1.15;;;0.70;;
21539;SDS011;10931;52.164;5.518;2023-03-03T09:18:21;1.35;;;0.80;;
21539;SDS011;10931;52.164;5.518;2023-03-03T09:20:55;2.72;;;1.20;;
21539;SDS011;10931;52.164;5.518;2023-03-03T09:24:03;1.98;;;0.90;;
21539;SDS011;10931;52.164;5.518;2023-03-03T09:27:06;1.08;;;0.60;;
21539;SDS011;10931;52.164;5.518;2023-03-03T09:33:26;1.02;;;0.70;;
21539;SDS011;10931;52.164;5.518;2023-03-03T09:48:40;1.10;;;0.80;;
21539;SDS011;10931;52.164;5.518;2023-03-03T09:57:37;1.45;;;0.70;;
21539;SDS011;10931;52.164;5.518;2023-03-03T11:03:19;0.63;;;0.40;;
21539;SDS011;10931;52.164;5.518;2023-03-03T11:12:14;0.80;;;0.50;;
21539;SDS011;10931;52.164;5.518;2023-03-03T11:25:26;1.42;;;0.90;;
21539;SDS011;10931;52.164;5.518;2023-03-03T11:31:20;1.48;;;0.90;;
21539;SDS011;10931;52.164;5.518;2023-03-03T11:35:07;2.33;;;1.05;;
21539;SDS011;10931;52.164;5.518;2023-03-03T11:55:51;1.50;;;0.82;;
21539;SDS011;10931;52.164;5.518;2023-03-03T11:58:26;2.80;;;0.88;;
21539;SDS011;10931;52.164;5.518;2023-03-03T12:03:51;1.80;;;1.27;;
21539;SDS011;10931;52.164;5.518;2023-03-03T12:06:52;1.60;;;0.90;;
21539;SDS011;10931;52.164;5.518;2023-03-03T12:12:44;2.13;;;1.02;;
21539;SDS011;10931;52.164;5.518;2023-03-03T12:16:03;1.50;;;0.80;;
21539;SDS011;10931;52.164;5.518;2023-03-03T12:19:33;1.38;;;0.90;;
21539;SDS011;10931;52.164;5.518;2023-03-03T12:25:40;2.42;;;0.95;;
21539;SDS011;10931;52.164;5.518;2023-03-03T15:55:46;0.75;;;0.40;;
21539;SDS011;10931;52.164;5.518;2023-03-03T17:14:50;0.40;;;0.40;;
21539;SDS011;10931;52.164;5.518;2023-03-03T17:20:48;1.10;;;0.50;;
21539;SDS011;10931;52.164;5.518;2023-03-03T17:32:06;1.02;;;0.50;;
21539;SDS011;10931;52.164;5.518;2023-03-03T17:39:47;4.30;;;1.00;;
21539;SDS011;10931;52.164;5.518;2023-03-03T17:45:24;2.33;;;0.60;;
21539;SDS011;10931;52.164;5.518;2023-03-03T17:57:08;0.85;;;0.60;;
21539;SDS011;10931;52.164;5.518;2023-03-03T18:23:49;1.58;;;0.60;;
21539;SDS011;10931;52.164;5.518;2023-03-03T18:29:16;1.15;;;0.80;;
21539;SDS011;10931;52.164;5.518;2023-03-03T18:32:40;2.25;;;0.80;;
21539;SDS011;10931;52.164;5.518;2023-03-03T18:49:17;1.23;;;0.70;;
21539;SDS011;10931;52.164;5.518;2023-03-03T23:21:27;1.05;;;0.60;;
21539;SDS011;10931;52.164;5.518;2023-03-03T23:24:14;1.10;;;0.70;;
21539;SDS011;10931;52.164;5.518;2023-03-03T23:27:07;2.67;;;0.70;;
21539;SDS011;10931;52.164;5.518;2023-03-03T23:33:23;1.60;;;0.63;;
21539;SDS011;10931;52.164;5.518;2023-03-03T23:35:59;0.80;;;0.47;;
21539;SDS011;10931;52.164;5.518;2023-03-03T23:39:19;4.32;;;0.77;;
21539;SDS011;10931;52.164;5.518;2023-03-03T23:42:07;2.80;;;0.90;;
21539;SDS011;10931;52.164;5.518;2023-03-03T23:48:22;1.77;;;0.50;;
21539;SDS011;10931;52.164;5.518;2023-03-03T23:54:43;1.73;;;0.70;;
21539;SDS011;10931;52.164;5.518;2023-03-03T23:57:25;2.38;;;0.60;;
